sensor_id;sensor_type;location;lat;lon;timestamp;P1;durP1;ratioP1;P2;durP2;ratioP2
22679;SDS011;11507;44.858;10.374;2023-05-10T00:00:38;20.20;;;11.05;;
22679;SDS011;11507;44.858;10.374;2023-05-10T00:03:07;19.63;;;10.60;;
22679;SDS011;11507;44.858;10.374;2023-05-10T00:05:33;27.63;;;11.88;;
22679;SDS011;11507;44.858;10.374;2023-05-10T00:08:00;16.75;;;10.80;;
22679;SDS011;11507;44.858;10.374;2023-05-10T00:10:27;17.55;;;11.60;;
22679;SDS011;11507;44.858;10.374;2023-05-10T00:12:53;19.60;;;12.07;;
22679;SDS011;11507;44.858;10.374;2023-05-10T00:15:19;20.23;;;11.57;;
22679;SDS011;11507;44.858;10.374;2023-05-10T00:20:16;16.58;;;11.43;;
22679;SDS011;11507;44.858;10.374;2023-05-10T00:25:12;19.88;;;12.68;;
22679;SDS011;11507;44.858;10.374;2023-05-10T00:27:39;20.13;;;12.13;;
22679;SDS011;11507;44.858;10.374;2023-05-10T00:30:08;18.15;;;11.93;;
22679;SDS011;11507;44.858;10.374;2023-05-10T00:35:06;20.75;;;12.93;;
22679;SDS011;11507;44.858;10.374;2023-05-10T00:37:34;17.83;;;12.52;;
22679;SDS011;11507;44.858;10.374;2023-05-10T00:40:02;19.35;;;12.77;;
22679;SDS011;11507;44.858;10.374;2023-05-10T00:42:30;18.92;;;12.50;;
22679;SDS011;11507;44.858;10.374;2023-05-10T00:44:57;20.10;;;13.25;;
22679;SDS011;11507;44.858;10.374;2023-05-10T00:47:24;19.90;;;13.48;;
22679;SDS011;11507;44.858;10.374;2023-05-10T00:49:50;20.70;;;13.73;;
22679;SDS011;11507;44.858;10.374;2023-05-10T00:52:17;19.85;;;13.07;;
22679;SDS011;11507;44.858;10.374;2023-05-10T00:54:43;22.88;;;14.68;;
22679;SDS011;11507;44.858;10.374;2023-05-10T00:57:12;22.25;;;14.70;;
22679;SDS011;11507;44.858;10.374;2023-05-10T00:59:39;24.73;;;14.65;;
22679;SDS011;11507;44.858;10.374;2023-05-10T01:02:06;21.15;;;15.30;;
22679;SDS011;11507;44.858;10.374;2023-05-10T01:04:32;22.25;;;14.75;;
22679;SDS011;11507;44.858;10.374;2023-05-10T01:07:00;23.58;;;14.98;;
22679;SDS011;11507;44.858;10.374;2023-05-10T01:09:27;25.90;;;15.35;;
22679;SDS011;11507;44.858;10.374;2023-05-10T01:11:53;23.65;;;16.02;;
22679;SDS011;11507;44.858;10.374;2023-05-10T01:14:22;25.15;;;16.27;;
22679;SDS011;11507;44.858;10.374;2023-05-10T01:16:50;24.70;;;17.02;;
22679;SDS011;11507;44.858;10.374;2023-05-10T01:19:22;23.30;;;15.55;;
22679;SDS011;11507;44.858;10.374;2023-05-10T01:22:14;23.15;;;15.50;;
22679;SDS011;11507;44.858;10.374;2023-05-10T01:30:26;21.80;;;14.77;;
22679;SDS011;11507;44.858;10.374;2023-05-10T01:33:11;24.05;;;14.90;;
22679;SDS011;11507;44.858;10.374;2023-05-10T01:35:55;22.35;;;14.25;;
22679;SDS011;11507;44.858;10.374;2023-05-10T01:39:00;27.25;;;15.82;;
22679;SDS011;11507;44.858;10.374;2023-05-10T01:41:54;21.25;;;13.60;;
22679;SDS011;11507;44.858;10.374;2023-05-10T01:44:34;21.80;;;14.50;;
22679;SDS011;11507;44.858;10.374;2023-05-10T01:47:14;23.05;;;14.65;;
22679;SDS011;11507;44.858;10.374;2023-05-10T01:49:47;21.17;;;13.82;;
22679;SDS011;11507;44.858;10.374;2023-05-10T01:52:18;21.50;;;13.63;;
22679;SDS011;11507;44.858;10.374;2023-05-10T01:54:51;20.65;;;12.50;;
22679;SDS011;11507;44.858;10.374;2023-05-10T01:57:22;19.02;;;13.18;;
22679;SDS011;11507;44.858;10.374;2023-05-10T01:59:51;20.20;;;13.20;;
22679;SDS011;11507;44.858;10.374;2023-05-10T02:02:19;19.25;;;12.68;;
22679;SDS011;11507;44.858;10.374;2023-05-10T02:04:49;19.27;;;12.18;;
22679;SDS011;11507;44.858;10.374;2023-05-10T02:07:17;20.20;;;13.27;;
22679;SDS011;11507;44.858;10.374;2023-05-10T02:09:44;20.55;;;13.40;;
22679;SDS011;11507;44.858;10.374;2023-05-10T02:12:15;21.17;;;13.93;;
22679;SDS011;11507;44.858;10.374;2023-05-10T02:14:41;20.83;;;13.43;;
22679;SDS011;11507;44.858;10.374;2023-05-10T02:17:09;21.90;;;13.60;;
22679;SDS011;11507;44.858;10.374;2023-05-10T02:19:38;20.17;;;12.98;;
22679;SDS011;11507;44.858;10.374;2023-05-10T02:22:07;18.73;;;11.23;;
22679;SDS011;11507;44.858;10.374;2023-05-10T02:24:35;16.55;;;10.77;;
22679;SDS011;11507;44.858;10.374;2023-05-10T02:27:03;15.23;;;10.32;;
22679;SDS011;11507;44.858;10.374;2023-05-10T02:29:32;15.65;;;10.55;;
22679;SDS011;11507;44.858;10.374;2023-05-10T02:32:00;14.80;;;9.40;;
22679;SDS011;11507;44.858;10.374;2023-05-10T02:34:28;17.08;;;9.57;;
22679;SDS011;11507;44.858;10.374;2023-05-10T02:36:56;15.20;;;9.00;;
22679;SDS011;11507;44.858;10.374;2023-05-10T02:39:24;14.27;;;9.57;;
22679;SDS011;11507;44.858;10.374;2023-05-10T02:41:54;14.02;;;9.30;;
22679;SDS011;11507;44.858;10.374;2023-05-10T02:44:22;12.52;;;8.35;;
22679;SDS011;11507;44.858;10.374;2023-05-10T02:46:49;14.13;;;8.63;;
22679;SDS011;11507;44.858;10.374;2023-05-10T02:49:16;14.38;;;8.68;;
22679;SDS011;11507;44.858;10.374;2023-05-10T02:51:47;12.52;;;8.45;;
22679;SDS011;11507;44.858;10.374;2023-05-10T02:54:20;17.30;;;9.48;;
22679;SDS011;11507;44.858;10.374;2023-05-10T02:56:59;13.35;;;8.77;;
22679;SDS011;11507;44.858;10.374;2023-05-10T02:59:30;15.05;;;8.65;;
22679;SDS011;11507;44.858;10.374;2023-05-10T03:01:58;13.85;;;8.40;;
22679;SDS011;11507;44.858;10.374;2023-05-10T03:04:26;17.45;;;9.85;;
22679;SDS011;11507;44.858;10.374;2023-05-10T03:06:55;13.82;;;9.35;;
22679;SDS011;11507;44.858;10.374;2023-05-10T03:09:22;14.98;;;9.00;;
22679;SDS011;11507;44.858;10.374;2023-05-10T03:11:56;15.38;;;9.07;;
22679;SDS011;11507;44.858;10.374;2023-05-10T03:14:39;14.93;;;9.50;;
22679;SDS011;11507;44.858;10.374;2023-05-10T03:17:32;13.63;;;9.23;;
22679;SDS011;11507;44.858;10.374;2023-05-10T03:20:25;14.65;;;9.55;;
22679;SDS011;11507;44.858;10.374;2023-05-10T03:23:00;13.18;;;9.40;;
22679;SDS011;11507;44.858;10.374;2023-05-10T03:25:51;14.10;;;9.57;;
22679;SDS011;11507;44.858;10.374;2023-05-10T03:28:18;14.48;;;9.15;;
22679;SDS011;11507;44.858;10.374;2023-05-10T03:30:47;14.88;;;9.90;;
22679;SDS011;11507;44.858;10.374;2023-05-10T03:33:15;14.40;;;10.00;;
22679;SDS011;11507;44.858;10.374;2023-05-10T03:35:44;15.13;;;10.05;;
22679;SDS011;11507;44.858;10.374;2023-05-10T03:38:12;16.95;;;10.07;;
22679;SDS011;11507;44.858;10.374;2023-05-10T03:40:39;15.02;;;10.07;;
22679;SDS011;11507;44.858;10.374;2023-05-10T03:43:07;14.43;;;9.77;;
22679;SDS011;11507;44.858;10.374;2023-05-10T03:45:33;13.68;;;9.68;;
22679;SDS011;11507;44.858;10.374;2023-05-10T03:48:02;14.27;;;9.27;;
22679;SDS011;11507;44.858;10.374;2023-05-10T03:50:30;15.63;;;10.35;;
22679;SDS011;11507;44.858;10.374;2023-05-10T03:52:59;14.98;;;9.70;;
22679;SDS011;11507;44.858;10.374;2023-05-10T03:55:27;15.75;;;10.32;;
22679;SDS011;11507;44.858;10.374;2023-05-10T03:57:55;16.48;;;10.23;;
22679;SDS011;11507;44.858;10.374;2023-05-10T04:00:23;13.05;;;9.38;;
22679;SDS011;11507;44.858;10.374;2023-05-10T04:02:53;13.77;;;8.88;;
22679;SDS011;11507;44.858;10.374;2023-05-10T04:05:21;14.40;;;9.00;;
22679;SDS011;11507;44.858;10.374;2023-05-10T04:07:52;14.23;;;8.88;;
22679;SDS011;11507;44.858;10.374;2023-05-10T04:10:19;17.05;;;9.70;;
22679;SDS011;11507;44.858;10.374;2023-05-10T04:12:48;12.70;;;9.00;;
22679;SDS011;11507;44.858;10.374;2023-05-10T04:15:14;13.10;;;8.45;;
22679;SDS011;11507;44.858;10.374;2023-05-10T04:17:41;13.45;;;8.55;;
22679;SDS011;11507;44.858;10.374;2023-05-10T04:20:09;12.00;;;8.45;;
22679;SDS011;11507;44.858;10.374;2023-05-10T04:22:37;13.48;;;8.23;;
22679;SDS011;11507;44.858;10.374;2023-05-10T04:25:05;12.43;;;8.27;;
22679;SDS011;11507;44.858;10.374;2023-05-10T04:27:33;13.70;;;9.15;;
22679;SDS011;11507;44.858;10.374;2023-05-10T04:30:01;16.50;;;9.60;;
22679;SDS011;11507;44.858;10.374;2023-05-10T04:32:29;14.88;;;9.70;;
22679;SDS011;11507;44.858;10.374;2023-05-10T04:34:57;15.48;;;9.45;;
22679;SDS011;11507;44.858;10.374;2023-05-10T04:37:26;14.88;;;9.63;;
22679;SDS011;11507;44.858;10.374;2023-05-10T04:39:52;13.48;;;8.90;;
22679;SDS011;11507;44.858;10.374;2023-05-10T04:42:20;14.70;;;9.38;;
22679;SDS011;11507;44.858;10.374;2023-05-10T04:44:48;13.30;;;9.52;;
22679;SDS011;11507;44.858;10.374;2023-05-10T04:47:14;14.63;;;10.20;;
22679;SDS011;11507;44.858;10.374;2023-05-10T04:49:42;13.45;;;9.85;;
22679;SDS011;11507;44.858;10.374;2023-05-10T04:52:09;13.75;;;9.55;;
22679;SDS011;11507;44.858;10.374;2023-05-10T04:54:38;13.52;;;9.73;;
22679;SDS011;11507;44.858;10.374;2023-05-10T04:57:07;12.80;;;8.93;;
22679;SDS011;11507;44.858;10.374;2023-05-10T04:59:35;14.93;;;10.38;;
22679;SDS011;11507;44.858;10.374;2023-05-10T05:02:04;16.38;;;11.00;;
22679;SDS011;11507;44.858;10.374;2023-05-10T05:04:33;13.73;;;10.40;;
22679;SDS011;11507;44.858;10.374;2023-05-10T05:07:01;16.17;;;10.85;;
22679;SDS011;11507;44.858;10.374;2023-05-10T05:09:31;14.48;;;10.52;;
22679;SDS011;11507;44.858;10.374;2023-05-10T05:14:28;12.77;;;8.18;;
22679;SDS011;11507;44.858;10.374;2023-05-10T05:16:54;15.68;;;8.82;;
22679;SDS011;11507;44.858;10.374;2023-05-10T05:19:24;11.65;;;8.00;;
22679;SDS011;11507;44.858;10.374;2023-05-10T05:21:53;11.52;;;7.97;;
22679;SDS011;11507;44.858;10.374;2023-05-10T05:24:25;11.05;;;7.47;;
22679;SDS011;11507;44.858;10.374;2023-05-10T05:26:53;11.95;;;8.05;;
22679;SDS011;11507;44.858;10.374;2023-05-10T05:29:20;13.50;;;8.18;;
22679;SDS011;11507;44.858;10.374;2023-05-10T05:31:48;12.50;;;8.02;;
22679;SDS011;11507;44.858;10.374;2023-05-10T05:34:17;12.57;;;7.90;;
22679;SDS011;11507;44.858;10.374;2023-05-10T05:36:46;12.80;;;7.95;;
22679;SDS011;11507;44.858;10.374;2023-05-10T05:39:14;15.48;;;7.80;;
22679;SDS011;11507;44.858;10.374;2023-05-10T05:41:41;10.57;;;7.20;;
22679;SDS011;11507;44.858;10.374;2023-05-10T05:44:07;11.43;;;7.65;;
22679;SDS011;11507;44.858;10.374;2023-05-10T05:46:33;11.50;;;7.07;;
22679;SDS011;11507;44.858;10.374;2023-05-10T05:49:01;11.20;;;7.68;;
22679;SDS011;11507;44.858;10.374;2023-05-10T05:51:29;12.65;;;7.63;;
22679;SDS011;11507;44.858;10.374;2023-05-10T05:53:56;12.80;;;7.57;;
22679;SDS011;11507;44.858;10.374;2023-05-10T05:56:24;11.63;;;8.13;;
22679;SDS011;11507;44.858;10.374;2023-05-10T05:58:52;11.63;;;8.18;;
22679;SDS011;11507;44.858;10.374;2023-05-10T06:01:25;12.95;;;7.80;;
22679;SDS011;11507;44.858;10.374;2023-05-10T06:03:54;10.20;;;7.45;;
22679;SDS011;11507;44.858;10.374;2023-05-10T06:06:21;11.25;;;7.78;;
22679;SDS011;11507;44.858;10.374;2023-05-10T06:08:52;12.23;;;7.53;;
22679;SDS011;11507;44.858;10.374;2023-05-10T06:11:20;13.95;;;8.30;;
22679;SDS011;11507;44.858;10.374;2023-05-10T06:13:49;13.48;;;7.97;;
22679;SDS011;11507;44.858;10.374;2023-05-10T06:18:40;11.95;;;7.80;;
22679;SDS011;11507;44.858;10.374;2023-05-10T06:23:32;11.70;;;7.95;;
22679;SDS011;11507;44.858;10.374;2023-05-10T06:25:58;12.07;;;7.72;;
22679;SDS011;11507;44.858;10.374;2023-05-10T06:28:24;12.65;;;7.90;;
22679;SDS011;11507;44.858;10.374;2023-05-10T06:35:47;11.20;;;7.00;;
22679;SDS011;11507;44.858;10.374;2023-05-10T06:40:42;10.00;;;7.15;;
22679;SDS011;11507;44.858;10.374;2023-05-10T06:43:08;11.25;;;7.40;;
22679;SDS011;11507;44.858;10.374;2023-05-10T06:45:35;10.00;;;6.80;;
22679;SDS011;11507;44.858;10.374;2023-05-10T06:48:01;12.65;;;7.55;;
22679;SDS011;11507;44.858;10.374;2023-05-10T06:50:29;9.85;;;6.78;;
22679;SDS011;11507;44.858;10.374;2023-05-10T06:52:58;14.27;;;7.63;;
22679;SDS011;11507;44.858;10.374;2023-05-10T06:55:25;12.85;;;7.70;;
22679;SDS011;11507;44.858;10.374;2023-05-10T06:57:52;10.98;;;7.43;;
22679;SDS011;11507;44.858;10.374;2023-05-10T07:00:20;11.63;;;7.00;;
22679;SDS011;11507;44.858;10.374;2023-05-10T07:02:46;11.60;;;7.22;;
22679;SDS011;11507;44.858;10.374;2023-05-10T07:05:14;15.10;;;7.93;;
22679;SDS011;11507;44.858;10.374;2023-05-10T07:07:41;11.40;;;7.80;;
22679;SDS011;11507;44.858;10.374;2023-05-10T07:10:08;11.15;;;7.45;;
22679;SDS011;11507;44.858;10.374;2023-05-10T07:12:34;10.40;;;6.95;;
22679;SDS011;11507;44.858;10.374;2023-05-10T07:15:00;11.90;;;7.22;;
22679;SDS011;11507;44.858;10.374;2023-05-10T07:17:27;9.77;;;6.68;;
22679;SDS011;11507;44.858;10.374;2023-05-10T07:22:19;10.10;;;6.43;;
22679;SDS011;11507;44.858;10.374;2023-05-10T07:24:45;10.27;;;6.35;;
22679;SDS011;11507;44.858;10.374;2023-05-10T07:27:12;9.85;;;6.40;;
22679;SDS011;11507;44.858;10.374;2023-05-10T07:29:38;10.30;;;6.85;;
22679;SDS011;11507;44.858;10.374;2023-05-10T07:32:05;13.13;;;7.15;;
22679;SDS011;11507;44.858;10.374;2023-05-10T07:34:32;12.10;;;6.57;;
22679;SDS011;11507;44.858;10.374;2023-05-10T07:36:58;12.32;;;6.60;;
22679;SDS011;11507;44.858;10.374;2023-05-10T07:39:26;9.35;;;6.68;;
22679;SDS011;11507;44.858;10.374;2023-05-10T07:41:56;10.82;;;6.95;;
22679;SDS011;11507;44.858;10.374;2023-05-10T07:44:24;9.90;;;6.65;;
22679;SDS011;11507;44.858;10.374;2023-05-10T07:46:51;9.82;;;6.55;;
22679;SDS011;11507;44.858;10.374;2023-05-10T07:49:19;11.60;;;6.80;;
22679;SDS011;11507;44.858;10.374;2023-05-10T07:51:47;12.13;;;6.63;;
22679;SDS011;11507;44.858;10.374;2023-05-10T07:54:13;10.77;;;6.65;;
22679;SDS011;11507;44.858;10.374;2023-05-10T07:56:40;12.57;;;6.65;;
22679;SDS011;11507;44.858;10.374;2023-05-10T07:59:16;12.55;;;6.80;;
22679;SDS011;11507;44.858;10.374;2023-05-10T08:01:43;11.10;;;6.40;;
22679;SDS011;11507;44.858;10.374;2023-05-10T08:04:10;10.40;;;6.07;;
22679;SDS011;11507;44.858;10.374;2023-05-10T08:06:39;10.25;;;6.55;;
22679;SDS011;11507;44.858;10.374;2023-05-10T08:09:07;9.95;;;6.32;;
22679;SDS011;11507;44.858;10.374;2023-05-10T08:11:33;9.05;;;6.60;;
22679;SDS011;11507;44.858;10.374;2023-05-10T08:14:00;10.68;;;6.72;;
22679;SDS011;11507;44.858;10.374;2023-05-10T08:18:53;10.98;;;6.50;;
22679;SDS011;11507;44.858;10.374;2023-05-10T08:21:20;12.07;;;5.80;;
22679;SDS011;11507;44.858;10.374;2023-05-10T08:23:48;9.32;;;6.10;;
22679;SDS011;11507;44.858;10.374;2023-05-10T08:26:14;12.52;;;6.32;;
22679;SDS011;11507;44.858;10.374;2023-05-10T08:31:07;13.05;;;6.53;;
22679;SDS011;11507;44.858;10.374;2023-05-10T08:33:34;12.88;;;6.43;;
22679;SDS011;11507;44.858;10.374;2023-05-10T08:36:01;10.10;;;6.20;;
22679;SDS011;11507;44.858;10.374;2023-05-10T08:38:28;10.38;;;6.63;;
22679;SDS011;11507;44.858;10.374;2023-05-10T08:43:23;10.50;;;5.88;;
22679;SDS011;11507;44.858;10.374;2023-05-10T08:45:56;12.20;;;6.80;;
22679;SDS011;11507;44.858;10.374;2023-05-10T08:48:25;9.15;;;6.30;;
22679;SDS011;11507;44.858;10.374;2023-05-10T08:50:54;10.75;;;6.63;;
22679;SDS011;11507;44.858;10.374;2023-05-10T08:53:26;9.90;;;6.18;;
22679;SDS011;11507;44.858;10.374;2023-05-10T08:56:01;9.68;;;6.57;;
22679;SDS011;11507;44.858;10.374;2023-05-10T08:58:29;9.48;;;6.10;;
22679;SDS011;11507;44.858;10.374;2023-05-10T09:00:56;10.25;;;6.18;;
22679;SDS011;11507;44.858;10.374;2023-05-10T09:03:24;8.60;;;6.00;;
22679;SDS011;11507;44.858;10.374;2023-05-10T09:05:50;8.65;;;5.97;;
22679;SDS011;11507;44.858;10.374;2023-05-10T09:08:16;8.30;;;5.78;;
22679;SDS011;11507;44.858;10.374;2023-05-10T09:10:45;9.35;;;5.70;;
22679;SDS011;11507;44.858;10.374;2023-05-10T09:13:14;9.15;;;5.68;;
22679;SDS011;11507;44.858;10.374;2023-05-10T09:15:46;8.25;;;5.22;;
22679;SDS011;11507;44.858;10.374;2023-05-10T09:18:16;9.40;;;5.07;;
22679;SDS011;11507;44.858;10.374;2023-05-10T09:20:44;9.50;;;6.05;;
22679;SDS011;11507;44.858;10.374;2023-05-10T09:23:16;8.48;;;5.35;;
22679;SDS011;11507;44.858;10.374;2023-05-10T09:25:47;9.18;;;5.20;;
22679;SDS011;11507;44.858;10.374;2023-05-10T09:28:31;7.70;;;5.20;;
22679;SDS011;11507;44.858;10.374;2023-05-10T09:31:04;9.93;;;5.63;;
22679;SDS011;11507;44.858;10.374;2023-05-10T09:33:43;7.82;;;5.30;;
22679;SDS011;11507;44.858;10.374;2023-05-10T09:36:27;9.70;;;5.40;;
22679;SDS011;11507;44.858;10.374;2023-05-10T09:39:07;7.75;;;5.35;;
22679;SDS011;11507;44.858;10.374;2023-05-10T09:41:37;9.15;;;5.43;;
22679;SDS011;11507;44.858;10.374;2023-05-10T09:44:08;7.97;;;5.20;;
22679;SDS011;11507;44.858;10.374;2023-05-10T09:46:36;9.98;;;5.90;;
22679;SDS011;11507;44.858;10.374;2023-05-10T09:51:34;9.82;;;5.47;;
22679;SDS011;11507;44.858;10.374;2023-05-10T09:54:15;9.48;;;5.38;;
22679;SDS011;11507;44.858;10.374;2023-05-10T09:56:46;10.00;;;5.20;;
22679;SDS011;11507;44.858;10.374;2023-05-10T09:59:21;8.45;;;5.03;;
22679;SDS011;11507;44.858;10.374;2023-05-10T10:01:56;9.98;;;5.25;;
22679;SDS011;11507;44.858;10.374;2023-05-10T10:04:25;9.45;;;6.05;;
22679;SDS011;11507;44.858;10.374;2023-05-10T10:07:02;8.88;;;5.38;;
22679;SDS011;11507;44.858;10.374;2023-05-10T10:09:31;7.35;;;4.90;;
22679;SDS011;11507;44.858;10.374;2023-05-10T10:11:58;8.55;;;5.82;;
22679;SDS011;11507;44.858;10.374;2023-05-10T10:14:29;7.75;;;5.18;;
22679;SDS011;11507;44.858;10.374;2023-05-10T10:16:57;8.85;;;5.13;;
22679;SDS011;11507;44.858;10.374;2023-05-10T10:19:28;7.85;;;5.55;;
22679;SDS011;11507;44.858;10.374;2023-05-10T10:22:01;10.57;;;5.18;;
22679;SDS011;11507;44.858;10.374;2023-05-10T10:24:28;9.90;;;5.78;;
22679;SDS011;11507;44.858;10.374;2023-05-10T10:26:59;7.90;;;5.20;;
22679;SDS011;11507;44.858;10.374;2023-05-10T10:33:47;7.00;;;5.10;;
22679;SDS011;11507;44.858;10.374;2023-05-10T10:35:59;8.73;;;5.40;;
22679;SDS011;11507;44.858;10.374;2023-05-10T10:38:38;8.32;;;5.38;;
22679;SDS011;11507;44.858;10.374;2023-05-10T10:41:41;7.88;;;5.18;;
22679;SDS011;11507;44.858;10.374;2023-05-10T10:47:06;8.95;;;5.13;;
22679;SDS011;11507;44.858;10.374;2023-05-10T10:50:04;8.95;;;5.05;;
22679;SDS011;11507;44.858;10.374;2023-05-10T10:52:35;7.90;;;5.07;;
22679;SDS011;11507;44.858;10.374;2023-05-10T10:55:10;7.55;;;5.10;;
22679;SDS011;11507;44.858;10.374;2023-05-10T10:57:46;8.85;;;5.20;;
22679;SDS011;11507;44.858;10.374;2023-05-10T11:00:21;8.23;;;5.00;;
22679;SDS011;11507;44.858;10.374;2023-05-10T11:03:03;10.73;;;5.35;;
22679;SDS011;11507;44.858;10.374;2023-05-10T11:05:34;7.15;;;5.03;;
22679;SDS011;11507;44.858;10.374;2023-05-10T11:10:38;9.23;;;5.57;;
22679;SDS011;11507;44.858;10.374;2023-05-10T11:13:07;10.73;;;5.95;;
22679;SDS011;11507;44.858;10.374;2023-05-10T11:15:37;9.02;;;5.68;;
22679;SDS011;11507;44.858;10.374;2023-05-10T11:18:39;9.77;;;5.20;;
22679;SDS011;11507;44.858;10.374;2023-05-10T11:20:59;7.30;;;5.30;;
22679;SDS011;11507;44.858;10.374;2023-05-10T11:23:56;10.15;;;5.20;;
22679;SDS011;11507;44.858;10.374;2023-05-10T11:29:07;7.57;;;5.25;;
22679;SDS011;11507;44.858;10.374;2023-05-10T11:31:35;9.73;;;5.35;;
22679;SDS011;11507;44.858;10.374;2023-05-10T11:34:11;7.67;;;5.50;;
22679;SDS011;11507;44.858;10.374;2023-05-10T11:36:54;7.10;;;4.90;;
22679;SDS011;11507;44.858;10.374;2023-05-10T11:42:03;7.35;;;5.00;;
22679;SDS011;11507;44.858;10.374;2023-05-10T11:44:34;8.95;;;5.65;;
22679;SDS011;11507;44.858;10.374;2023-05-10T11:47:03;8.55;;;4.97;;
22679;SDS011;11507;44.858;10.374;2023-05-10T11:49:31;7.40;;;5.07;;
22679;SDS011;11507;44.858;10.374;2023-05-10T11:52:06;7.90;;;5.05;;
22679;SDS011;11507;44.858;10.374;2023-05-10T11:54:34;8.13;;;5.55;;
22679;SDS011;11507;44.858;10.374;2023-05-10T11:57:06;8.07;;;5.47;;
22679;SDS011;11507;44.858;10.374;2023-05-10T12:02:05;8.45;;;6.00;;
22679;SDS011;11507;44.858;10.374;2023-05-10T12:04:32;8.20;;;5.57;;
22679;SDS011;11507;44.858;10.374;2023-05-10T12:07:00;9.30;;;5.60;;
22679;SDS011;11507;44.858;10.374;2023-05-10T12:09:30;8.55;;;5.68;;
22679;SDS011;11507;44.858;10.374;2023-05-10T12:11:59;11.38;;;5.90;;
22679;SDS011;11507;44.858;10.374;2023-05-10T12:14:27;8.05;;;5.38;;
22679;SDS011;11507;44.858;10.374;2023-05-10T12:16:59;7.97;;;6.18;;
22679;SDS011;11507;44.858;10.374;2023-05-10T12:19:27;7.90;;;5.30;;
22679;SDS011;11507;44.858;10.374;2023-05-10T12:21:56;8.70;;;6.15;;
22679;SDS011;11507;44.858;10.374;2023-05-10T12:24:25;8.20;;;5.90;;
22679;SDS011;11507;44.858;10.374;2023-05-10T12:26:52;8.30;;;5.88;;
22679;SDS011;11507;44.858;10.374;2023-05-10T12:29:23;8.48;;;6.13;;
22679;SDS011;11507;44.858;10.374;2023-05-10T12:31:51;8.52;;;5.78;;
22679;SDS011;11507;44.858;10.374;2023-05-10T12:34:32;8.40;;;5.95;;
22679;SDS011;11507;44.858;10.374;2023-05-10T12:37:00;9.15;;;6.07;;
22679;SDS011;11507;44.858;10.374;2023-05-10T12:39:43;8.30;;;5.72;;
22679;SDS011;11507;44.858;10.374;2023-05-10T12:42:14;9.05;;;5.78;;
22679;SDS011;11507;44.858;10.374;2023-05-10T12:44:42;8.82;;;5.93;;
22679;SDS011;11507;44.858;10.374;2023-05-10T12:47:10;7.55;;;5.95;;
22679;SDS011;11507;44.858;10.374;2023-05-10T12:52:12;7.70;;;5.68;;
22679;SDS011;11507;44.858;10.374;2023-05-10T12:54:41;10.27;;;6.30;;
22679;SDS011;11507;44.858;10.374;2023-05-10T12:57:10;8.98;;;6.13;;
22679;SDS011;11507;44.858;10.374;2023-05-10T12:59:39;8.75;;;6.07;;
22679;SDS011;11507;44.858;10.374;2023-05-10T13:02:08;8.52;;;5.90;;
22679;SDS011;11507;44.858;10.374;2023-05-10T13:04:36;8.32;;;5.78;;
22679;SDS011;11507;44.858;10.374;2023-05-10T13:07:06;12.85;;;6.55;;
22679;SDS011;11507;44.858;10.374;2023-05-10T13:12:04;10.23;;;5.85;;
22679;SDS011;11507;44.858;10.374;2023-05-10T13:14:31;8.35;;;6.32;;
22679;SDS011;11507;44.858;10.374;2023-05-10T13:16:59;8.40;;;5.97;;
22679;SDS011;11507;44.858;10.374;2023-05-10T13:19:27;7.95;;;6.00;;
22679;SDS011;11507;44.858;10.374;2023-05-10T13:21:53;7.40;;;5.50;;
22679;SDS011;11507;44.858;10.374;2023-05-10T13:24:20;9.40;;;5.93;;
22679;SDS011;11507;44.858;10.374;2023-05-10T13:26:48;8.73;;;5.72;;
22679;SDS011;11507;44.858;10.374;2023-05-10T13:29:17;8.52;;;5.78;;
22679;SDS011;11507;44.858;10.374;2023-05-10T13:31:45;8.45;;;6.35;;
22679;SDS011;11507;44.858;10.374;2023-05-10T13:34:12;10.25;;;6.68;;
22679;SDS011;11507;44.858;10.374;2023-05-10T13:36:39;9.95;;;6.95;;
22679;SDS011;11507;44.858;10.374;2023-05-10T13:39:06;8.82;;;6.60;;
22679;SDS011;11507;44.858;10.374;2023-05-10T13:41:33;8.93;;;6.78;;
22679;SDS011;11507;44.858;10.374;2023-05-10T13:44:00;9.10;;;6.35;;
22679;SDS011;11507;44.858;10.374;2023-05-10T13:46:28;9.05;;;6.47;;
22679;SDS011;11507;44.858;10.374;2023-05-10T13:48:56;9.85;;;6.72;;
22679;SDS011;11507;44.858;10.374;2023-05-10T13:51:23;8.07;;;6.13;;
22679;SDS011;11507;44.858;10.374;2023-05-10T13:53:49;9.20;;;6.65;;
22679;SDS011;11507;44.858;10.374;2023-05-10T13:56:20;7.40;;;6.18;;
22679;SDS011;11507;44.858;10.374;2023-05-10T13:58:47;8.75;;;6.57;;
22679;SDS011;11507;44.858;10.374;2023-05-10T14:01:14;10.68;;;6.18;;
22679;SDS011;11507;44.858;10.374;2023-05-10T14:03:42;8.18;;;6.32;;
22679;SDS011;11507;44.858;10.374;2023-05-10T14:06:10;8.13;;;5.93;;
22679;SDS011;11507;44.858;10.374;2023-05-10T14:08:38;9.88;;;6.53;;
22679;SDS011;11507;44.858;10.374;2023-05-10T14:11:07;9.07;;;6.20;;
22679;SDS011;11507;44.858;10.374;2023-05-10T14:13:34;8.25;;;6.18;;
22679;SDS011;11507;44.858;10.374;2023-05-10T14:16:00;11.85;;;7.00;;
22679;SDS011;11507;44.858;10.374;2023-05-10T14:18:27;10.00;;;7.00;;
22679;SDS011;11507;44.858;10.374;2023-05-10T14:20:53;11.13;;;6.75;;
22679;SDS011;11507;44.858;10.374;2023-05-10T14:23:21;9.35;;;6.70;;
22679;SDS011;11507;44.858;10.374;2023-05-10T14:25:52;9.40;;;6.80;;
22679;SDS011;11507;44.858;10.374;2023-05-10T14:28:19;9.55;;;6.50;;
22679;SDS011;11507;44.858;10.374;2023-05-10T14:30:46;9.18;;;6.63;;
22679;SDS011;11507;44.858;10.374;2023-05-10T14:33:13;9.30;;;6.82;;
22679;SDS011;11507;44.858;10.374;2023-05-10T14:35:40;10.55;;;7.10;;
22679;SDS011;11507;44.858;10.374;2023-05-10T14:38:07;11.35;;;7.38;;
22679;SDS011;11507;44.858;10.374;2023-05-10T14:40:34;9.52;;;6.45;;
22679;SDS011;11507;44.858;10.374;2023-05-10T14:43:01;10.10;;;6.97;;
22679;SDS011;11507;44.858;10.374;2023-05-10T14:45:29;10.13;;;7.38;;
22679;SDS011;11507;44.858;10.374;2023-05-10T14:47:56;10.05;;;6.45;;
22679;SDS011;11507;44.858;10.374;2023-05-10T14:50:24;11.05;;;6.85;;
22679;SDS011;11507;44.858;10.374;2023-05-10T14:52:51;9.00;;;6.40;;
22679;SDS011;11507;44.858;10.374;2023-05-10T14:55:18;9.95;;;5.90;;
22679;SDS011;11507;44.858;10.374;2023-05-10T14:57:46;9.40;;;6.78;;
22679;SDS011;11507;44.858;10.374;2023-05-10T15:00:15;9.70;;;6.22;;
22679;SDS011;11507;44.858;10.374;2023-05-10T15:02:42;10.35;;;6.20;;
22679;SDS011;11507;44.858;10.374;2023-05-10T15:05:09;9.38;;;6.13;;
22679;SDS011;11507;44.858;10.374;2023-05-10T15:07:36;9.55;;;6.18;;
22679;SDS011;11507;44.858;10.374;2023-05-10T15:10:04;10.07;;;6.75;;
22679;SDS011;11507;44.858;10.374;2023-05-10T15:12:35;8.60;;;5.82;;
22679;SDS011;11507;44.858;10.374;2023-05-10T15:15:02;10.52;;;6.78;;
22679;SDS011;11507;44.858;10.374;2023-05-10T15:17:31;8.82;;;6.20;;
22679;SDS011;11507;44.858;10.374;2023-05-10T15:19:58;10.05;;;6.30;;
22679;SDS011;11507;44.858;10.374;2023-05-10T15:22:25;9.02;;;6.53;;
22679;SDS011;11507;44.858;10.374;2023-05-10T15:24:53;9.15;;;6.13;;
22679;SDS011;11507;44.858;10.374;2023-05-10T15:27:20;9.02;;;6.43;;
22679;SDS011;11507;44.858;10.374;2023-05-10T15:29:47;9.68;;;7.10;;
22679;SDS011;11507;44.858;10.374;2023-05-10T15:32:13;10.75;;;6.53;;
22679;SDS011;11507;44.858;10.374;2023-05-10T15:34:50;9.13;;;6.45;;
22679;SDS011;11507;44.858;10.374;2023-05-10T15:37:20;10.05;;;6.95;;
22679;SDS011;11507;44.858;10.374;2023-05-10T15:39:59;9.25;;;6.80;;